Time;durP1;ratioP1;P1;durP2;ratioP2;P2;SDS_P1;SDS_P2;PMS_P1;PMS_P2;Temp;Humidity;BMP_temperature;BMP_pressure;BME280_temperature;BME280_humidity;BME280_pressure;Samples;Min_cycle;Max_cycle;Signal;HPM_P1;HPM_P2
2023/06/25 00:01:59;;;;;;;12.70;10.30;;;;;;;20.50;86.19;99593.32;106979;1253;59625;-83
2023/06/25 00:04:26;;;;;;;11.60;10.00;;;;;;;20.51;86.40;99592.48;108986;1254;71809;-82
2023/06/25 00:06:54;;;;;;;11.20;10.10;;;;;;;20.43;86.91;99595.40;107953;1254;68854;-86
2023/06/25 00:09:21;;;;;;;11.70;10.40;;;;;;;20.36;87.11;99599.83;106398;1254;71345;-83
2023/06/25 00:11:50;;;;;;;10.80;9.30;;;;;;;20.37;87.98;99600.45;106022;1254;62833;-83
2023/06/25 00:14:17;;;;;;;11.00;10.00;;;;;;;20.38;88.34;99601.66;105929;1258;59546;-81
2023/06/25 00:16:45;;;;;;;11.90;10.40;;;;;;;20.34;88.84;99602.85;105921;1257;72310;-80
2023/06/25 00:19:17;;;;;;;10.70;9.50;;;;;;;20.29;88.85;99602.56;106248;1254;68903;-81
2023/06/25 00:21:45;;;;;;;15.60;14.00;;;;;;;20.29;89.37;99600.86;106389;1254;73248;-83
2023/06/25 00:24:14;;;;;;;12.80;11.60;;;;;;;20.31;89.25;99605.86;106364;1254;61689;-83
2023/06/25 00:26:45;;;;;;;15.30;13.40;;;;;;;20.30;89.41;99605.79;106770;1254;59718;-81
2023/06/25 00:29:13;;;;;;;14.70;13.10;;;;;;;20.25;90.38;99603.25;106053;1254;71611;-81
2023/06/25 00:31:41;;;;;;;13.70;12.10;;;;;;;20.20;90.87;99603.47;105761;1254;69961;-80
2023/06/25 00:34:09;;;;;;;15.40;11.70;;;;;;;20.23;91.44;99605.19;105736;1260;72682;-82
2023/06/25 00:36:37;;;;;;;12.30;10.50;;;;;;;20.26;92.08;99609.25;108303;1252;60492;-83
2023/06/25 00:39:05;;;;;;;14.30;11.50;;;;;;;20.28;92.65;99610.00;107452;1251;59519;-80
2023/06/25 00:41:32;;;;;;;13.10;10.70;;;;;;;20.26;93.67;99604.77;106029;1254;71728;-83
2023/06/25 00:44:02;;;;;;;12.00;10.70;;;;;;;20.20;94.56;99600.07;107410;1252;68993;-87
2023/06/25 00:46:30;;;;;;;10.90;9.80;;;;;;;20.17;95.02;99594.91;108090;1253;71179;-82
2023/06/25 00:49:05;;;;;;;10.80;9.80;;;;;;;20.11;94.48;99594.95;107040;1254;60508;-85
2023/06/25 00:51:36;;;;;;;11.10;9.90;;;;;;;20.02;93.95;99592.52;106555;1253;59564;-84
2023/06/25 00:54:06;;;;;;;10.80;9.10;;;;;;;19.98;94.72;99587.13;106966;1254;73097;-82
2023/06/25 00:56:34;;;;;;;11.10;10.10;;;;;;;19.96;94.58;99586.40;107054;1254;70330;-85
2023/06/25 00:59:02;;;;;;;11.60;9.80;;;;;;;19.95;94.21;99581.83;106252;1256;71674;-84
2023/06/25 01:01:48;;;;;;;10.10;9.10;;;;;;;19.93;94.20;99579.48;107194;1258;61692;-82
2023/06/25 01:04:22;;;;;;;11.40;9.90;;;;;;;19.92;94.67;99575.04;107999;1253;59554;-84
2023/06/25 01:06:54;;;;;;;11.90;10.20;;;;;;;19.92;94.63;99570.98;108855;1252;71567;-86
2023/06/25 01:09:21;;;;;;;12.70;10.80;;;;;;;19.92;94.73;99559.55;109332;1253;69283;-85
2023/06/25 01:12:04;;;;;;;11.30;10.00;;;;;;;19.94;94.96;99560.85;109174;1253;73820;-87
2023/06/25 01:14:34;;;;;;;10.40;9.40;;;;;;;20.00;95.07;99561.24;108655;1252;62612;-88
2023/06/25 01:17:05;;;;;;;11.10;9.50;;;;;;;20.06;94.61;99563.94;108060;1254;59714;-85
2023/06/25 01:19:33;;;;;;;10.50;9.50;;;;;;;20.09;94.10;99562.09;108780;1253;71812;-86
2023/06/25 01:22:07;;;;;;;10.90;9.80;;;;;;;20.14;94.96;99556.23;108891;1251;68736;-87
2023/06/25 01:24:35;;;;;;;9.70;8.80;;;;;;;20.19;95.27;99546.27;108844;1252;72718;-87
2023/06/25 01:27:04;;;;;;;10.30;9.20;;;;;;;20.24;94.73;99537.30;109345;1252;60801;-82
2023/06/25 01:29:35;;;;;;;11.00;9.90;;;;;;;20.27;93.85;99538.27;108643;1252;61205;-86
2023/06/25 01:32:03;;;;;;;11.30;10.00;;;;;;;20.30;93.59;99540.88;107929;1254;71043;-86
2023/06/25 01:34:30;;;;;;;11.70;10.00;;;;;;;20.31;93.51;99538.86;108460;1255;71913;-83
2023/06/25 01:36:58;;;;;;;10.40;9.30;;;;;;;20.32;93.22;99535.98;106448;1255;71928;-88
2023/06/25 01:39:26;;;;;;;10.70;9.30;;;;;;;20.30;93.02;99535.27;106975;1256;60777;-83
2023/06/25 01:41:54;;;;;;;9.70;8.80;;;;;;;20.27;93.15;99533.00;107888;1251;60085;-81
2023/06/25 01:44:26;;;;;;;9.90;8.90;;;;;;;20.26;93.32;99534.70;108285;1253;71795;-81
2023/06/25 01:46:54;;;;;;;10.50;9.50;;;;;;;20.25;93.21;99539.81;107011;1253;70122;-82
2023/06/25 01:49:23;;;;;;;10.70;9.60;;;;;;;20.25;93.26;99539.60;107187;1259;71400;-77
2023/06/25 01:52:00;;;;;;;9.80;8.90;;;;;;;20.26;93.22;99530.00;107776;1251;63927;-77
2023/06/25 01:54:29;;;;;;;10.00;9.10;;;;;;;20.28;93.33;99525.20;106986;1254;61197;-78
2023/06/25 01:56:57;;;;;;;11.40;10.20;;;;;;;20.29;92.30;99522.47;105793;1254;73190;-79
2023/06/25 01:59:24;;;;;;;10.40;9.50;;;;;;;20.28;92.34;99519.71;105707;1251;67815;-81
2023/06/25 02:01:52;;;;;;;10.30;9.30;;;;;;;20.28;92.71;99522.83;105934;1253;72880;-78
2023/06/25 02:04:20;;;;;;;10.50;9.20;;;;;;;20.30;93.28;99526.31;105808;1262;59733;-82
2023/06/25 02:06:47;;;;;;;10.40;9.30;;;;;;;20.31;93.44;99529.58;105970;1256;59646;-83
2023/06/25 02:09:15;;;;;;;13.20;10.10;;;;;;;20.32;92.66;99527.64;105977;1252;73377;-83
2023/06/25 02:11:43;;;;;;;10.50;9.60;;;;;;;20.31;93.06;99530.61;107383;1254;69991;-87
2023/06/25 02:14:10;;;;;;;9.80;8.70;;;;;;;20.34;93.21;99531.79;109606;1253;71427;-85
2023/06/25 02:16:38;;;;;;;10.40;9.50;;;;;;;20.36;92.15;99530.55;109505;1251;60386;-86
2023/06/25 02:19:05;;;;;;;10.70;9.50;;;;;;;20.31;91.70;99529.10;109570;1251;60927;-84
2023/06/25 02:21:33;;;;;;;10.50;9.50;;;;;;;20.29;92.02;99523.97;108888;1251;71909;-85
2023/06/25 02:24:00;;;;;;;10.50;9.30;;;;;;;20.31;92.56;99525.32;107499;1253;68987;-87
2023/06/25 02:26:29;;;;;;;10.30;9.40;;;;;;;20.30;92.70;99524.48;107127;1253;71368;-87
2023/06/25 02:28:57;;;;;;;10.20;9.30;;;;;;;20.32;93.67;99524.14;108591;1253;60728;-82
2023/06/25 02:31:24;;;;;;;12.10;9.60;;;;;;;20.39;94.10;99518.52;108174;1251;59293;-86
2023/06/25 02:33:52;;;;;;;10.50;9.60;;;;;;;20.44;93.56;99518.63;106400;1251;71788;-85
2023/06/25 02:36:19;;;;;;;9.60;8.70;;;;;;;20.49;93.57;99516.27;106569;1251;70912;-84
2023/06/25 02:38:47;;;;;;;10.70;9.70;;;;;;;20.56;92.71;99509.80;106561;1254;70444;-86
2023/06/25 02:41:14;;;;;;;10.30;9.20;;;;;;;20.61;92.18;99507.36;106679;1254;62185;-84
2023/06/25 02:43:43;;;;;;;10.60;9.60;;;;;;;20.65;91.68;99510.48;107143;1256;59533;-82
2023/06/25 02:46:10;;;;;;;10.80;9.80;;;;;;;20.66;90.95;99505.71;106959;1254;73119;-85
2023/06/25 02:48:39;;;;;;;10.40;9.40;;;;;;;20.64;90.53;99506.36;109358;1254;67914;-86
2023/06/25 02:51:06;;;;;;;11.10;10.00;;;;;;;20.58;89.68;99504.52;107676;1254;72452;-86
2023/06/25 02:53:34;;;;;;;10.40;9.30;;;;;;;20.52;89.77;99502.01;106462;1254;60521;-81
2023/06/25 02:56:02;;;;;;;11.90;9.30;;;;;;;20.48;89.51;99510.12;107040;1252;60215;-87
2023/06/25 02:58:29;;;;;;;10.50;9.40;;;;;;;20.40;89.24;99506.90;107414;1252;72593;-83
2023/06/25 03:00:57;;;;;;;11.70;10.60;;;;;;;20.34;89.47;99505.58;107288;1254;68855;-87
2023/06/25 03:03:24;;;;;;;11.00;9.60;;;;;;;20.30;90.02;99516.11;107549;1254;71371;-87
2023/06/25 03:05:52;;;;;;;10.40;9.40;;;;;;;20.28;90.66;99514.41;108351;1254;60557;-84
2023/06/25 03:08:21;;;;;;;11.40;10.20;;;;;;;20.20;91.30;99510.48;107605;1253;59279;-86
2023/06/25 03:10:49;;;;;;;11.30;10.10;;;;;;;20.20;92.10;99508.70;109318;1259;72401;-89
2023/06/25 03:13:19;;;;;;;11.00;9.90;;;;;;;20.25;92.55;99509.23;109436;1251;68890;-85
2023/06/25 03:15:46;;;;;;;10.70;9.70;;;;;;;20.34;93.34;99511.13;109384;1254;71706;-86
2023/06/25 03:18:15;;;;;;;11.10;10.00;;;;;;;20.41;92.63;99502.54;108613;1253;59177;-86
2023/06/25 03:20:43;;;;;;;10.90;9.80;;;;;;;20.44;91.97;99499.96;109090;1254;60317;-88
2023/06/25 03:23:10;;;;;;;11.30;10.10;;;;;;;20.48;91.96;99496.96;108990;1257;72374;-89
2023/06/25 03:25:39;;;;;;;10.80;9.70;;;;;;;20.54;91.76;99491.27;108306;1254;68720;-89
2023/06/25 03:28:16;;;;;;;11.10;9.90;;;;;;;20.62;91.35;99491.05;108430;1253;71368;-89
2023/06/25 03:30:47;;;;;;;12.40;10.00;;;;;;;20.70;90.62;99494.73;108900;1254;60438;-84
2023/06/25 03:33:18;;;;;;;10.10;9.10;;;;;;;20.73;88.93;99495.38;109256;1252;61027;-84
2023/06/25 03:35:45;;;;;;;9.30;8.40;;;;;;;20.70;87.79;99494.61;107840;1254;72738;-84
2023/06/25 03:38:13;;;;;;;8.90;8.10;;;;;;;20.67;87.00;99488.77;107295;1254;69072;-82
2023/06/25 03:40:41;;;;;;;9.10;8.00;;;;;;;20.65;86.46;99489.02;109285;1251;71574;-80
2023/06/25 03:43:09;;;;;;;9.30;8.40;;;;;;;20.67;86.11;99485.32;107860;1254;61022;-86
2023/06/25 03:45:38;;;;;;;8.60;7.70;;;;;;;20.69;85.80;99481.55;108128;1254;60414;-86
2023/06/25 03:48:06;;;;;;;8.20;7.40;;;;;;;20.73;84.80;99485.55;107857;1252;72821;-86
2023/06/25 03:50:33;;;;;;;8.50;7.70;;;;;;;20.76;84.52;99489.55;108026;1252;69032;-83
2023/06/25 03:53:01;;;;;;;8.60;7.80;;;;;;;20.80;84.71;99490.23;108898;1252;71587;-84
2023/06/25 03:55:29;;;;;;;9.10;8.30;;;;;;;20.88;85.36;99492.46;108975;1252;60051;-85
2023/06/25 03:57:56;;;;;;;8.70;7.80;;;;;;;20.93;85.02;99495.09;106752;1258;60441;-89
2023/06/25 04:00:28;;;;;;;9.60;8.00;;;;;;;20.94;84.07;99497.45;106612;1253;75057;-88
2023/06/25 04:02:55;;;;;;;9.60;8.50;;;;;;;20.96;86.14;99499.58;106793;1251;70243;-88
2023/06/25 04:05:23;;;;;;;10.00;9.00;;;;;;;21.01;87.08;99499.99;106788;1254;73568;-87
2023/06/25 04:07:50;;;;;;;9.20;8.30;;;;;;;21.05;88.11;99495.96;106554;1256;60473;-85
2023/06/25 04:10:18;;;;;;;8.80;7.90;;;;;;;21.08;88.31;99494.88;106329;1254;60485;-82
2023/06/25 04:12:46;;;;;;;9.20;8.30;;;;;;;21.09;88.33;99496.35;106169;1256;73875;-84
2023/06/25 04:15:16;;;;;;;9.10;8.30;;;;;;;21.09;89.02;99495.23;106138;1259;71008;-83
2023/06/25 04:17:43;;;;;;;9.20;8.30;;;;;;;21.14;89.78;99488.77;105683;1257;74976;-84
2023/06/25 04:20:11;;;;;;;8.50;7.80;;;;;;;21.17;88.76;99493.80;106095;1254;60885;-81
2023/06/25 04:22:38;;;;;;;8.40;7.60;;;;;;;21.14;86.61;99491.59;106471;1254;61354;-87
2023/06/25 04:25:07;;;;;;;8.30;7.40;;;;;;;21.15;86.76;99492.19;106514;1258;72962;-85
2023/06/25 04:27:35;;;;;;;9.20;8.10;;;;;;;21.23;86.67;99487.68;109427;1254;69506;-82
2023/06/25 04:30:02;;;;;;;10.70;8.20;;;;;;;21.29;84.80;99490.27;107747;1254;71656;-80
2023/06/25 04:32:32;;;;;;;9.00;8.10;;;;;;;21.32;85.50;99493.08;107579;1254;60526;-84
2023/06/25 04:35:01;;;;;;;8.70;7.80;;;;;;;21.38;85.27;99492.48;107567;1259;60444;-86
2023/06/25 04:37:29;;;;;;;8.00;7.20;;;;;;;21.43;85.30;99485.32;107341;1254;73948;-85
2023/06/25 04:39:57;;;;;;;8.60;7.60;;;;;;;21.52;84.75;99484.89;107946;1254;69072;-83
2023/06/25 04:42:24;;;;;;;8.80;7.90;;;;;;;21.58;84.96;99484.33;108049;1254;72871;-81
2023/06/25 04:44:52;;;;;;;8.80;7.90;;;;;;;21.63;83.81;99476.13;108504;1253;60482;-86
2023/06/25 04:47:20;;;;;;;8.40;7.70;;;;;;;21.68;83.27;99475.73;108858;1252;58942;-85
2023/06/25 04:49:48;;;;;;;7.90;7.20;;;;;;;21.79;83.31;99475.78;109415;1252;72644;-84
2023/06/25 04:52:19;;;;;;;7.90;7.10;;;;;;;21.89;82.31;99473.33;108162;1259;70758;-85
2023/06/25 04:54:47;;;;;;;10.50;7.90;;;;;;;21.92;81.50;99468.88;107439;1254;74799;-81
2023/06/25 04:57:14;;;;;;;9.20;7.70;;;;;;;21.93;80.87;99470.36;106176;1255;60547;-80
2023/06/25 04:59:42;;;;;;;8.30;7.50;;;;;;;21.92;80.44;99472.29;107591;1253;60415;-83
2023/06/25 05:02:09;;;;;;;8.30;7.50;;;;;;;21.95;81.23;99470.82;107030;1254;74075;-79
2023/06/25 05:04:37;;;;;;;8.30;7.50;;;;;;;22.04;80.87;99471.91;106008;1256;70429;-79
2023/06/25 05:07:04;;;;;;;9.00;8.10;;;;;;;22.09;80.26;99474.52;106105;1259;72658;-79
2023/06/25 05:09:32;;;;;;;8.30;7.50;;;;;;;22.07;79.97;99476.33;106125;1254;60444;-81
2023/06/25 05:11:59;;;;;;;9.30;8.40;;;;;;;22.04;80.19;99478.77;106625;1254;60554;-80
2023/06/25 05:14:27;;;;;;;9.00;8.30;;;;;;;22.00;79.48;99482.73;107097;1254;72565;-80
2023/06/25 05:16:55;;;;;;;8.60;7.80;;;;;;;21.97;79.15;99481.27;106421;1254;70089;-82
2023/06/25 05:19:22;;;;;;;9.30;8.40;;;;;;;21.91;78.77;99480.88;105970;1254;73019;-82
2023/06/25 05:21:50;;;;;;;9.20;8.30;;;;;;;21.86;78.93;99476.10;106273;1253;60860;-83
2023/06/25 05:24:18;;;;;;;8.80;7.90;;;;;;;21.79;79.38;99478.16;106159;1254;60553;-83
2023/06/25 05:26:45;;;;;;;9.60;8.70;;;;;;;21.74;80.36;99475.34;106710;1252;73927;-82
2023/06/25 05:29:13;;;;;;;10.10;9.10;;;;;;;21.82;82.62;99467.98;109129;1254;68931;-82
2023/06/25 05:31:41;;;;;;;10.90;9.80;;;;;;;22.01;84.69;99468.67;108740;1253;71861;-84
2023/06/25 05:34:09;;;;;;;9.10;8.20;;;;;;;22.23;85.43;99464.54;109260;1252;60550;-87
2023/06/25 05:36:37;;;;;;;10.00;8.70;;;;;;;22.46;86.28;99462.45;106688;1254;60386;-87
2023/06/25 05:39:04;;;;;;;9.00;8.00;;;;;;;22.63;85.71;99467.68;106192;1259;73785;-83
2023/06/25 05:41:32;;;;;;;10.60;8.40;;;;;;;22.79;86.46;99470.06;107136;1258;70094;-84
2023/06/25 05:44:00;;;;;;;9.00;8.20;;;;;;;22.95;86.26;99469.80;107657;1254;71193;-82
2023/06/25 05:46:28;;;;;;;11.40;8.90;;;;;;;23.11;85.16;99471.70;106729;1253;60437;-83
2023/06/25 05:48:55;;;;;;;10.20;9.30;;;;;;;23.22;83.04;99469.85;107220;1258;60424;-79
2023/06/25 05:51:22;;;;;;;10.20;9.30;;;;;;;23.25;80.87;99468.46;107021;1254;72373;-78
2023/06/25 05:53:54;;;;;;;11.10;9.80;;;;;;;23.25;79.73;99465.21;105886;1254;67722;-78
2023/06/25 05:56:21;;;;;;;9.90;9.10;;;;;;;23.22;79.44;99463.44;108673;1254;71309;-82
2023/06/25 05:58:49;;;;;;;10.60;9.70;;;;;;;23.21;80.58;99467.61;108982;1254;60506;-83
2023/06/25 06:01:20;;;;;;;10.90;9.40;;;;;;;23.27;81.25;99469.56;109146;1253;58658;-81
2023/06/25 06:03:48;;;;;;;10.40;9.40;;;;;;;23.37;81.45;99472.50;107627;1252;72542;-83
2023/06/25 06:06:16;;;;;;;11.20;10.10;;;;;;;23.42;80.04;99474.29;108311;1254;70648;-77
2023/06/25 06:08:44;;;;;;;12.50;10.00;;;;;;;23.43;80.54;99471.70;106730;1254;72211;-82
2023/06/25 06:11:11;;;;;;;10.20;9.10;;;;;;;23.48;81.01;99470.33;106229;1259;60549;-81
2023/06/25 06:13:39;;;;;;;9.00;8.10;;;;;;;23.56;80.24;99473.31;105933;1259;60441;-82
2023/06/25 06:16:06;;;;;;;9.70;8.70;;;;;;;23.58;77.21;99471.69;106098;1258;73909;-83
2023/06/25 06:18:34;;;;;;;8.80;7.90;;;;;;;23.58;78.46;99475.83;105916;1253;70212;-82
2023/06/25 06:21:01;;;;;;;10.00;9.00;;;;;;;23.67;78.03;99475.49;106253;1254;72510;-81
2023/06/25 06:23:29;;;;;;;9.80;8.90;;;;;;;23.78;75.88;99477.53;106413;1254;60546;-78
2023/06/25 06:25:57;;;;;;;9.70;8.80;;;;;;;23.83;73.28;99478.02;106085;1254;60306;-78
2023/06/25 06:28:24;;;;;;;10.80;9.60;;;;;;;23.80;73.33;99476.30;105904;1260;73836;-80
2023/06/25 06:30:51;;;;;;;10.00;9.20;;;;;;;23.77;75.08;99472.48;105957;1254;69262;-79
2023/06/25 06:33:19;;;;;;;9.90;9.00;;;;;;;23.86;76.19;99475.27;106140;1254;72765;-77
2023/06/25 06:35:46;;;;;;;10.20;9.20;;;;;;;23.90;76.70;99477.25;106588;1256;60590;-77
2023/06/25 06:38:14;;;;;;;9.20;8.40;;;;;;;23.91;76.85;99479.20;106561;1252;60437;-76
2023/06/25 06:40:41;;;;;;;8.60;7.80;;;;;;;23.93;75.12;99474.88;106417;1254;73002;-76
2023/06/25 06:43:09;;;;;;;9.80;8.90;;;;;;;23.96;73.73;99474.79;106115;1258;70744;-78
2023/06/25 06:45:36;;;;;;;9.60;8.80;;;;;;;23.90;74.12;99475.94;106066;1254;72874;-79
2023/06/25 06:48:05;;;;;;;9.80;8.70;;;;;;;23.87;74.61;99476.58;108052;1254;60388;-78
2023/06/25 06:50:33;;;;;;;9.20;8.20;;;;;;;23.93;75.11;99477.05;106091;1253;60510;-80
2023/06/25 06:53:00;;;;;;;8.50;7.70;;;;;;;24.05;75.05;99480.05;105971;1253;72571;-80
2023/06/25 06:55:28;;;;;;;9.60;8.70;;;;;;;24.10;74.79;99480.88;105973;1259;73213;-79
2023/06/25 06:57:55;;;;;;;12.80;9.40;;;;;;;24.11;73.66;99477.63;106240;1254;72719;-76
2023/06/25 07:00:29;;;;;;;9.00;8.20;;;;;;;24.12;73.95;99474.43;106096;1254;61953;-78
2023/06/25 07:02:57;;;;;;;9.40;8.50;;;;;;;24.25;73.54;99475.70;106019;1254;60476;-78
2023/06/25 07:05:25;;;;;;;9.10;8.30;;;;;;;24.32;73.03;99474.27;107639;1254;73911;-76
2023/06/25 07:07:52;;;;;;;10.50;9.60;;;;;;;24.35;73.43;99470.45;108120;1254;69711;-79
2023/06/25 07:10:20;;;;;;;9.60;8.60;;;;;;;24.40;73.07;99468.09;107347;1256;71605;-76
2023/06/25 07:12:47;;;;;;;9.10;8.30;;;;;;;24.50;73.39;99467.70;106488;1256;61801;-78
2023/06/25 07:15:15;;;;;;;9.30;8.50;;;;;;;24.65;70.06;99468.30;106412;1254;60524;-80
2023/06/25 07:17:42;;;;;;;10.50;9.60;;;;;;;24.63;67.10;99468.84;106901;1253;72598;-80
2023/06/25 07:20:11;;;;;;;9.60;8.80;;;;;;;24.48;67.62;99470.90;107004;1257;70782;-79
2023/06/25 07:22:40;;;;;;;10.70;9.70;;;;;;;24.39;67.36;99467.88;107448;1254;73277;-74
2023/06/25 07:25:10;;;;;;;10.70;9.70;;;;;;;24.35;67.96;99467.86;108311;1253;61936;-76
2023/06/25 07:27:38;;;;;;;10.70;9.80;;;;;;;24.35;68.94;99467.69;107505;1252;59376;-80
2023/06/25 07:30:08;;;;;;;10.80;9.70;;;;;;;24.48;68.85;99468.79;106260;1254;74343;-78
2023/06/25 07:32:36;;;;;;;10.80;9.80;;;;;;;24.50;66.77;99463.53;106539;1257;68812;-78
2023/06/25 07:35:04;;;;;;;10.50;9.70;;;;;;;24.45;67.31;99462.89;106059;1259;72190;-78
2023/06/25 07:37:31;;;;;;;11.50;10.50;;;;;;;24.45;67.55;99465.28;106259;1251;60555;-80
2023/06/25 07:39:59;;;;;;;10.70;9.70;;;;;;;24.43;67.11;99466.31;106077;1259;59983;-79
2023/06/25 07:42:26;;;;;;;10.60;9.70;;;;;;;24.42;66.47;99466.90;105942;1254;73845;-79
2023/06/25 07:44:54;;;;;;;11.10;10.00;;;;;;;24.36;66.73;99463.95;106779;1251;70197;-80
2023/06/25 07:47:24;;;;;;;9.60;8.60;;;;;;;24.39;67.87;99464.94;106117;1252;71432;-79
2023/06/25 07:49:52;;;;;;;8.80;7.90;;;;;;;24.59;67.83;99464.75;105934;1259;61048;-78
2023/06/25 07:52:19;;;;;;;8.80;8.00;;;;;;;24.82;66.98;99464.38;105810;1252;60514;-80
2023/06/25 07:54:47;;;;;;;8.90;8.00;;;;;;;25.06;66.17;99464.14;105967;1258;73655;-79
2023/06/25 07:57:15;;;;;;;9.00;8.10;;;;;;;25.26;65.27;99468.25;106149;1253;70324;-79
2023/06/25 07:59:42;;;;;;;9.40;8.50;;;;;;;25.45;64.32;99461.40;105913;1259;72472;-80
2023/06/25 08:02:22;;;;;;;8.20;7.50;;;;;;;25.59;63.62;99458.45;105943;1259;60562;-78
2023/06/25 08:04:50;;;;;;;8.10;7.10;;;;;;;25.71;62.96;99455.59;105969;1253;60355;-79
2023/06/25 08:07:17;;;;;;;8.60;7.70;;;;;;;25.84;63.33;99454.91;105971;1254;74048;-78
2023/06/25 08:09:46;;;;;;;8.60;7.90;;;;;;;25.98;63.39;99449.47;105831;1254;69954;-78
2023/06/25 08:12:16;;;;;;;8.30;7.60;;;;;;;26.10;62.95;99451.16;106098;1258;72005;-78
2023/06/25 08:14:44;;;;;;;9.10;8.20;;;;;;;26.22;61.95;99448.61;106308;1254;61019;-78
2023/06/25 08:17:12;;;;;;;8.80;7.80;;;;;;;26.29;62.61;99449.02;107306;1254;60486;-78
2023/06/25 08:19:40;;;;;;;7.30;6.60;;;;;;;26.43;62.19;99449.50;108185;1254;72909;-79
2023/06/25 08:22:07;;;;;;;8.20;7.40;;;;;;;26.55;61.31;99446.00;106523;1254;71215;-82
2023/06/25 08:24:35;;;;;;;8.30;7.50;;;;;;;26.65;60.21;99444.83;106101;1251;72805;-79
2023/06/25 08:27:02;;;;;;;8.10;7.40;;;;;;;26.72;60.22;99448.27;106088;1251;60459;-78
2023/06/25 08:29:32;;;;;;;8.70;8.00;;;;;;;26.81;59.56;99450.34;106006;1258;60470;-79
2023/06/25 08:32:00;;;;;;;8.00;7.30;;;;;;;26.84;58.13;99448.30;106021;1256;73912;-81
2023/06/25 08:34:28;;;;;;;9.50;8.60;;;;;;;26.77;57.20;99446.44;106030;1253;70277;-78
2023/06/25 08:36:55;;;;;;;9.00;8.30;;;;;;;26.66;57.84;99449.40;106221;1254;72601;-79
2023/06/25 08:39:23;;;;;;;8.70;8.00;;;;;;;26.55;58.50;99452.22;106750;1253;60670;-78
2023/06/25 08:41:50;;;;;;;10.10;8.80;;;;;;;26.45;59.21;99451.88;107833;1258;60414;-75
2023/06/25 08:44:18;;;;;;;9.00;8.30;;;;;;;26.38;59.74;99451.05;105979;1253;74781;-75
2023/06/25 08:46:49;;;;;;;9.50;8.60;;;;;;;26.26;59.45;99448.33;105959;1254;70059;-75
2023/06/25 08:49:16;;;;;;;9.40;8.40;;;;;;;26.05;58.93;99449.27;106013;1256;73111;-77
2023/06/25 08:51:44;;;;;;;9.90;8.90;;;;;;;25.83;59.35;99453.01;107872;1256;59382;-75
2023/06/25 08:54:11;;;;;;;9.70;8.90;;;;;;;25.65;61.12;99452.23;108208;1253;58757;-76
2023/06/25 08:56:39;;;;;;;8.80;8.10;;;;;;;25.51;62.40;99454.48;108262;1253;72848;-74
2023/06/25 08:59:07;;;;;;;9.60;8.80;;;;;;;25.40;62.78;99452.59;106362;1258;68704;-76
2023/06/25 09:01:35;;;;;;;9.70;8.60;;;;;;;25.29;63.62;99448.41;105764;1257;72731;-79
2023/06/25 09:04:03;;;;;;;9.60;8.60;;;;;;;25.21;65.05;99454.97;105870;1260;62248;-76
2023/06/25 09:06:40;;;;;;;10.10;9.20;;;;;;;25.23;64.59;99452.81;105680;1253;60662;-76
2023/06/25 09:09:27;;;;;;;11.80;9.40;;;;;;;25.18;64.15;99448.98;105639;1259;73064;-77
2023/06/25 09:11:55;;;;;;;11.00;9.40;;;;;;;25.10;63.99;99452.62;105860;1259;70266;-77
2023/06/25 09:14:22;;;;;;;10.90;9.80;;;;;;;25.03;64.53;99452.18;105649;1256;71195;-78
2023/06/25 09:16:50;;;;;;;10.90;9.90;;;;;;;24.96;63.73;99451.91;105736;1253;60641;-76
2023/06/25 09:19:18;;;;;;;10.20;9.10;;;;;;;24.89;63.52;99449.18;105781;1254;60899;-77
2023/06/25 09:21:46;;;;;;;9.50;8.70;;;;;;;24.85;63.62;99444.98;105811;1259;73930;-76
2023/06/25 09:24:17;;;;;;;11.00;10.00;;;;;;;24.78;63.91;99445.80;105938;1254;70638;-76
2023/06/25 09:26:49;;;;;;;9.80;8.90;;;;;;;24.74;65.08;99446.17;106535;1259;71846;-77
2023/06/25 09:29:17;;;;;;;10.90;9.30;;;;;;;24.78;64.77;99444.70;108621;1257;61996;-77
2023/06/25 09:31:46;;;;;;;10.30;9.00;;;;;;;24.80;64.23;99441.40;108495;1253;62129;-77
2023/06/25 09:34:17;;;;;;;9.40;8.50;;;;;;;24.81;64.21;99439.92;107007;1254;72304;-79
2023/06/25 09:36:45;;;;;;;11.20;10.00;;;;;;;24.84;63.80;99441.63;105953;1254;70588;-76
2023/06/25 09:39:14;;;;;;;9.60;8.80;;;;;;;24.88;63.86;99441.23;105719;1259;72552;-76
2023/06/25 09:41:42;;;;;;;10.50;9.50;;;;;;;24.97;64.20;99442.99;106026;1255;60475;-79
2023/06/25 09:44:10;;;;;;;9.90;8.60;;;;;;;25.09;63.76;99435.55;105737;1256;60498;-78
2023/06/25 09:46:39;;;;;;;9.50;8.60;;;;;;;25.23;63.23;99432.69;105736;1257;73872;-78
2023/06/25 09:49:07;;;;;;;10.40;9.50;;;;;;;25.34;63.67;99431.94;105867;1254;70483;-76
2023/06/25 09:51:53;;;;;;;10.20;9.30;;;;;;;25.52;63.65;99431.96;105793;1257;72854;-80
2023/06/25 09:54:22;;;;;;;10.50;9.60;;;;;;;25.83;63.53;99424.61;106236;1257;60532;-76
2023/06/25 09:56:50;;;;;;;11.90;9.70;;;;;;;26.18;62.58;99421.35;106248;1259;60450;-78
2023/06/25 09:59:17;;;;;;;9.70;8.90;;;;;;;26.52;61.23;99414.31;107675;1259;72838;-76
2023/06/25 10:01:45;;;;;;;9.30;8.50;;;;;;;26.78;60.61;99411.90;105758;1253;68765;-77
2023/06/25 10:04:12;;;;;;;10.20;9.10;;;;;;;26.96;59.70;99409.45;105464;1259;72758;-77
2023/06/25 10:06:40;;;;;;;10.20;9.10;;;;;;;27.03;58.52;99409.03;105402;1257;60527;-79
2023/06/25 10:09:08;;;;;;;9.00;8.30;;;;;;;27.03;57.84;99408.86;105618;1254;60391;-79
2023/06/25 10:11:35;;;;;;;10.60;9.60;;;;;;;26.91;57.49;99405.96;105769;1260;73869;-78
2023/06/25 10:14:06;;;;;;;9.50;8.50;;;;;;;26.78;58.03;99399.09;105711;1259;68425;-79
2023/06/25 10:16:34;;;;;;;9.90;9.00;;;;;;;26.68;57.74;99396.91;105471;1259;72648;-77
2023/06/25 10:19:06;;;;;;;10.30;9.40;;;;;;;26.56;58.36;99392.34;105878;1258;60424;-77
2023/06/25 10:21:34;;;;;;;11.20;9.20;;;;;;;26.47;58.65;99396.64;105712;1259;60419;-76
2023/06/25 10:24:03;;;;;;;10.60;9.20;;;;;;;26.34;59.18;99394.37;105499;1256;73879;-77
2023/06/25 10:26:33;;;;;;;10.40;9.30;;;;;;;26.18;59.40;99395.87;105855;1259;71805;-77
2023/06/25 10:29:06;;;;;;;8.60;7.70;;;;;;;25.97;59.38;99394.05;107114;1255;72045;-79
2023/06/25 10:31:41;;;;;;;9.40;8.50;;;;;;;25.79;60.59;99393.11;106338;1254;60536;-80
2023/06/25 10:34:10;;;;;;;9.80;8.90;;;;;;;25.61;60.50;99397.63;106251;1254;60542;-80
2023/06/25 10:36:48;;;;;;;10.30;9.30;;;;;;;25.44;60.71;99402.51;106071;1259;72825;-77
2023/06/25 10:39:18;;;;;;;9.60;8.70;;;;;;;25.28;60.92;99404.22;106813;1260;68691;-79
2023/06/25 10:41:47;;;;;;;11.00;10.00;;;;;;;25.16;61.05;99405.23;107600;1257;72497;-79
2023/06/25 10:44:14;;;;;;;9.40;8.40;;;;;;;25.06;61.28;99405.66;107697;1256;59180;-78
2023/06/25 10:46:41;;;;;;;11.10;10.00;;;;;;;24.97;62.51;99406.25;107479;1256;59231;-78
2023/06/25 10:49:20;;;;;;;10.40;9.40;;;;;;;24.87;63.77;99409.68;105967;1257;72868;-78
2023/06/25 10:51:47;;;;;;;9.30;8.50;;;;;;;24.72;64.28;99407.38;106572;1259;70155;-79
2023/06/25 10:54:15;;;;;;;9.70;8.80;;;;;;;24.58;64.16;99403.39;105733;1253;72487;-77
2023/06/25 10:56:43;;;;;;;10.40;9.40;;;;;;;24.47;64.38;99402.74;105657;1254;272480;-81
2023/06/25 11:00:59;;;;;;;11.40;10.20;;;;;;;24.33;64.73;99398.20;102499;1297;603969;-76
2023/06/25 11:03:26;;;;;;;11.30;10.10;;;;;;;24.16;65.95;99404.27;104986;1270;61842;-75
2023/06/25 11:05:56;;;;;;;11.00;10.00;;;;;;;24.02;67.06;99413.13;105178;1268;60329;-76
2023/06/25 11:08:24;;;;;;;12.80;11.30;;;;;;;23.82;68.52;99419.70;104719;1275;71085;-74
2023/06/25 11:10:51;;;;;;;12.50;10.80;;;;;;;23.53;70.15;99427.67;104615;1275;70652;-76
2023/06/25 11:13:18;;;;;;;15.50;11.20;;;;;;;23.25;71.60;99430.41;104449;1272;203635;-75
2023/06/25 11:15:47;;;;;;;12.80;10.70;;;;;;;23.01;73.55;99430.52;104932;1268;61878;-76
2023/06/25 11:18:14;;;;;;;16.00;11.90;;;;;;;22.84;75.30;99428.45;105363;1262;60242;-75
2023/06/25 11:20:41;;;;;;;15.40;12.30;;;;;;;22.64;77.07;99431.23;105366;1262;72669;-75
2023/06/25 11:23:10;;;;;;;12.40;11.00;;;;;;;22.43;78.98;99441.25;105415;1262;70513;-76
2023/06/25 11:25:37;;;;;;;12.40;10.40;;;;;;;22.28;79.76;99449.30;105360;1261;72559;-76
2023/06/25 11:28:06;;;;;;;14.20;11.40;;;;;;;22.12;80.37;99462.08;106337;1262;60078;-75